Time;durP1;ratioP1;P1;durP2;ratioP2;P2;SDS_P1;SDS_P2;PMS_P1;PMS_P2;Temp;Humidity;BMP_temperature;BMP_pressure;BME280_temperature;BME280_humidity;BME280_pressure;Samples;Min_cycle;Max_cycle;Signal;HPM_P1;HPM_P2
2023/02/16 00:01:46;;;;;;;4.13;0.90;;;30.50;65.90;;;;;;5052796;28;20020;-61
2023/02/16 00:04:22;;;;;;;9.82;1.58;;;30.70;69.60;;;;;;5052513;28;20037;-61
2023/02/16 00:06:50;;;;;;;11.85;1.80;;;31.00;69.60;;;;;;5052389;28;20032;-62
2023/02/16 00:09:18;;;;;;;10.77;3.25;;;31.10;65.00;;;;;;5052236;28;20029;-62
2023/02/16 00:14:34;;;;;;;11.38;2.25;;;31.70;69.30;;;;;;5052342;28;20054;-62
2023/02/16 00:17:03;;;;;;;9.05;2.45;;;31.80;70.00;;;;;;5052063;28;20025;-62
2023/02/16 00:19:35;;;;;;;4.45;1.52;;;31.80;67.10;;;;;;5051823;28;20025;-60
2023/02/16 00:22:05;;;;;;;9.00;2.05;;;31.20;62.30;;;;;;5052075;28;20021;-61
2023/02/16 00:24:32;;;;;;;6.97;1.48;;;31.50;64.90;;;;;;5051920;28;20063;-60
2023/02/16 00:27:01;;;;;;;8.65;1.83;;;31.30;61.50;;;;;;5051805;28;20056;-60
2023/02/16 00:29:31;;;;;;;8.30;1.35;;;31.20;62.10;;;;;;5051683;28;20036;-60
2023/02/16 00:32:00;;;;;;;8.30;2.70;;;31.30;64.30;;;;;;5051538;28;20448;-60
2023/02/16 00:34:43;;;;;;;7.47;1.90;;;31.50;68.20;;;;;;5050097;28;20021;-60
2023/02/16 00:37:13;;;;;;;15.20;4.82;;;32.00;63.10;;;;;;5051732;28;20021;-60
2023/02/16 00:39:42;;;;;;;10.00;3.05;;;32.00;63.30;;;;;;5051487;28;20078;-60
2023/02/16 00:42:28;;;;;;;7.70;2.17;;;32.10;62.50;;;;;;5051505;28;20053;-60
2023/02/16 00:44:58;;;;;;;4.93;1.45;;;31.70;61.50;;;;;;5051655;28;20051;-61
2023/02/16 00:47:31;;;;;;;3.25;1.10;;;31.60;63.20;;;;;;5051405;28;20025;-60
2023/02/16 00:49:58;;;;;;;5.60;1.43;;;31.30;60.50;;;;;;5051336;28;20027;-60
2023/02/16 00:52:35;;;;;;;4.05;1.30;;;31.30;63.30;;;;;;5051335;28;20029;-60
2023/02/16 00:55:10;;;;;;;6.53;1.50;;;31.50;62.50;;;;;;5051643;28;20025;-60
2023/02/16 00:57:48;;;;;;;5.28;1.30;;;31.30;60.10;;;;;;5051322;28;20040;-60
2023/02/16 01:00:22;;;;;;;5.03;1.33;;;31.30;61.40;;;;;;5051708;28;20105;-60
2023/02/16 01:02:52;;;;;;;6.30;1.42;;;31.30;62.10;;;;;;5051033;28;20043;-60
2023/02/16 01:05:20;;;;;;;5.65;1.13;;;31.60;63.80;;;;;;5051087;28;20028;-61
2023/02/16 01:13:20;;;;;;;8.85;1.45;;;31.80;59.50;;;;;;5051132;28;20040;-61
2023/02/16 01:15:47;;;;;;;10.18;2.13;;;31.70;57.90;;;;;;5051426;28;20021;-61
2023/02/16 01:18:17;;;;;;;3.67;1.63;;;31.50;60.60;;;;;;5051169;28;20082;-61
2023/02/16 01:20:45;;;;;;;4.72;1.50;;;31.40;60.20;;;;;;5051274;28;20021;-61
2023/02/16 01:23:13;;;;;;;6.20;1.20;;;31.30;61.20;;;;;;5051031;28;20022;-61
2023/02/16 01:25:41;;;;;;;5.63;1.30;;;31.40;59.60;;;;;;5050541;28;20020;-61
2023/02/16 01:28:22;;;;;;;4.55;0.95;;;31.60;60.80;;;;;;5050714;28;20056;-61
2023/02/16 01:30:51;;;;;;;3.97;2.08;;;32.00;65.90;;;;;;5050398;28;20109;-61
2023/02/16 01:33:20;;;;;;;5.03;1.13;;;32.30;59.10;;;;;;5050421;28;20057;-61
2023/02/16 01:35:47;;;;;;;2.80;1.00;;;32.40;60.10;;;;;;5050897;28;20028;-61
2023/02/16 01:38:19;;;;;;;3.65;1.10;;;32.70;58.40;;;;;;5050932;28;20029;-61
2023/02/16 01:40:57;;;;;;;3.95;1.17;;;32.70;55.50;;;;;;5050897;28;20078;-62
2023/02/16 01:43:35;;;;;;;4.53;1.88;;;32.70;54.60;;;;;;5050501;28;20478;-62
2023/02/16 01:46:17;;;;;;;7.28;1.45;;;32.50;56.80;;;;;;5050403;28;20363;-61
2023/02/16 01:48:45;;;;;;;4.90;1.38;;;32.50;58.50;;;;;;5050703;28;20687;-61
2023/02/16 01:51:27;;;;;;;4.20;1.20;;;32.70;61.30;;;;;;5050352;28;20033;-61
2023/02/16 01:54:11;;;;;;;4.95;1.42;;;33.10;56.90;;;;;;5050293;28;20140;-62
2023/02/16 01:56:58;;;;;;;5.78;1.33;;;33.70;58.10;;;;;;5050328;28;20036;-62
2023/02/16 01:59:28;;;;;;;3.55;1.15;;;33.80;53.80;;;;;;5050159;28;20060;-62
2023/02/16 02:01:59;;;;;;;6.05;1.25;;;33.90;55.10;;;;;;5049565;28;20048;-62
2023/02/16 02:07:57;;;;;;;4.40;1.20;;;34.10;52.80;;;;;;5050248;28;20044;-61
2023/02/16 02:10:31;;;;;;;6.82;1.70;;;34.10;56.40;;;;;;5049982;28;20017;-62
2023/02/16 02:13:44;;;;;;;5.35;1.88;;;34.10;53.30;;;;;;5049784;28;20127;-62
2023/02/16 02:16:15;;;;;;;6.35;1.45;;;34.20;52.90;;;;;;5044320;28;20420;-61
2023/02/16 02:18:43;;;;;;;5.18;1.30;;;34.10;52.30;;;;;;5049821;28;20071;-61
2023/02/16 02:24:35;;;;;;;5.20;1.20;;;34.40;57.20;;;;;;5050314;28;20420;-61
2023/02/16 02:27:19;;;;;;;3.65;1.20;;;34.60;54.20;;;;;;5050114;28;20028;-61
2023/02/16 02:29:58;;;;;;;;;;;34.40;52.70;;;;;;5050639;28;20013;-61
2023/02/16 02:33:02;;;;;;;2.63;1.17;;;34.40;54.40;;;;;;5049799;28;19960;-61
2023/02/16 02:35:59;;;;;;;5.80;1.10;;;34.50;51.70;;;;;;5048270;28;20036;-61
2023/02/16 02:39:20;;;;;;;3.08;1.02;;;34.60;50.30;;;;;;5049631;28;20024;-61
2023/02/16 02:42:10;;;;;;;3.72;1.10;;;34.60;53.10;;;;;;5027734;28;20112;-62
2023/02/16 02:45:01;;;;;;;3.80;1.33;;;34.90;51.80;;;;;;5048887;28;20043;-62
2023/02/16 02:47:47;;;;;;;3.70;1.10;;;35.10;50.30;;;;;;5049368;28;20028;-62
2023/02/16 02:53:41;;;;;;;4.30;1.20;;;34.50;49.20;;;;;;5048188;28;20044;-62
2023/02/16 03:01:53;;;;;;;4.70;1.00;;;35.00;53.20;;;;;;5049888;28;20047;-62
2023/02/16 03:04:26;;;;;;;4.15;1.02;;;35.10;50.50;;;;;;5049339;28;20025;-63
2023/02/16 03:06:56;;;;;;;2.83;0.90;;;35.30;52.30;;;;;;5049404;28;20079;-62
2023/02/16 03:09:24;;;;;;;4.03;1.05;;;35.30;49.40;;;;;;5049329;28;20112;-63
2023/02/16 03:14:46;;;;;;;3.17;1.30;;;35.50;52.40;;;;;;5051762;28;20055;-62
2023/02/16 03:31:29;;;;;;;4.90;1.25;;;36.20;50.90;;;;;;5052594;28;20506;-63
2023/02/16 03:33:57;;;;;;;4.50;1.00;;;35.90;49.10;;;;;;5052873;28;20082;-62
2023/02/16 03:36:27;;;;;;;5.55;1.45;;;36.00;48.90;;;;;;5052752;28;20112;-63
2023/02/16 03:38:56;;;;;;;5.43;1.02;;;36.10;48.60;;;;;;5052833;28;20101;-63
2023/02/16 03:41:25;;;;;;;6.25;1.00;;;36.10;48.90;;;;;;5052687;28;20478;-62
2023/02/16 03:43:53;;;;;;;5.93;1.20;;;35.90;48.60;;;;;;5051401;28;20075;-63
2023/02/16 03:46:20;;;;;;;3.70;1.00;;;35.90;50.20;;;;;;5052574;28;21004;-63
2023/02/16 03:48:48;;;;;;;3.50;1.15;;;35.80;47.40;;;;;;5053112;28;20394;-62
2023/02/16 03:51:15;;;;;;;2.50;1.20;;;35.80;48.40;;;;;;5052810;28;20033;-63
2023/02/16 03:53:43;;;;;;;2.45;1.08;;;35.50;48.00;;;;;;5052625;28;20024;-62
2023/02/16 03:56:10;;;;;;;3.03;1.10;;;35.50;49.20;;;;;;5052432;28;20097;-62
2023/02/16 03:58:37;;;;;;;2.60;1.00;;;35.60;48.90;;;;;;5052257;28;20548;-62
2023/02/16 04:01:05;;;;;;;2.38;1.02;;;35.70;49.40;;;;;;5052148;28;20063;-63
2023/02/16 04:03:33;;;;;;;3.83;1.30;;;35.70;50.30;;;;;;5052382;28;20071;-63
2023/02/16 04:06:00;;;;;;;3.10;1.23;;;35.90;49.40;;;;;;5052360;28;20047;-63
2023/02/16 04:08:28;;;;;;;3.50;1.13;;;35.90;50.60;;;;;;5052173;28;20024;-62
2023/02/16 04:10:56;;;;;;;5.22;1.40;;;36.00;51.20;;;;;;5052150;28;20029;-62
2023/02/16 04:13:24;;;;;;;3.17;1.08;;;36.10;49.80;;;;;;5052096;28;20440;-63
2023/02/16 04:15:51;;;;;;;4.18;1.65;;;36.10;48.70;;;;;;5051877;28;20480;-63
2023/02/16 04:18:19;;;;;;;1.40;0.75;;;35.60;47.90;;;;;;5052528;28;20465;-62
2023/02/16 04:20:46;;;;;;;3.53;1.10;;;35.30;49.40;;;;;;5052367;28;20023;-62
2023/02/16 04:23:13;;;;;;;2.38;1.13;;;35.00;48.80;;;;;;5051892;28;20072;-62
2023/02/16 04:25:41;;;;;;;1.67;0.93;;;34.70;48.30;;;;;;5050127;28;20035;-63
2023/02/16 04:28:08;;;;;;;4.22;1.42;;;35.00;49.60;;;;;;5050558;28;20082;-63
2023/02/16 04:30:36;;;;;;;3.80;1.30;;;35.30;50.00;;;;;;5051628;28;20539;-63
2023/02/16 04:33:03;;;;;;;7.28;1.25;;;35.50;50.70;;;;;;5051455;28;20037;-63
2023/02/16 04:35:30;;;;;;;1.92;1.00;;;35.60;47.20;;;;;;5051773;28;20039;-62
2023/02/16 04:37:58;;;;;;;4.05;1.00;;;35.20;46.60;;;;;;5051570;28;20052;-63
2023/02/16 04:40:25;;;;;;;2.05;0.98;;;34.90;47.60;;;;;;5051506;28;20033;-63
2023/02/16 04:42:52;;;;;;;3.55;1.15;;;34.80;48.00;;;;;;5051496;28;20029;-63
2023/02/16 04:45:20;;;;;;;5.78;1.63;;;34.70;47.30;;;;;;5051695;28;20017;-64
2023/02/16 04:47:47;;;;;;;6.68;1.42;;;35.00;50.80;;;;;;5051713;28;20543;-63
2023/02/16 04:50:15;;;;;;;4.85;1.25;;;35.30;48.70;;;;;;5051572;28;20035;-63
2023/02/16 04:52:42;;;;;;;1.30;0.90;;;35.30;49.30;;;;;;5051161;28;20040;-63
2023/02/16 04:55:10;;;;;;;5.05;1.23;;;35.30;47.90;;;;;;5051376;28;20025;-63
2023/02/16 04:57:38;;;;;;;2.42;1.05;;;35.20;47.80;;;;;;5051206;28;20078;-63
2023/02/16 05:00:13;;;;;;;4.13;1.10;;;35.00;47.30;;;;;;5051298;28;20021;-63
2023/02/16 05:02:40;;;;;;;3.15;1.08;;;34.80;49.90;;;;;;5050835;28;20029;-63
2023/02/16 05:05:08;;;;;;;2.92;1.63;;;35.00;48.30;;;;;;5051006;28;20029;-63
2023/02/16 05:07:36;;;;;;;3.95;1.35;;;35.20;47.30;;;;;;5051071;28;20359;-63
2023/02/16 05:10:05;;;;;;;1.85;1.10;;;35.10;48.20;;;;;;5051083;28;20407;-63
2023/02/16 05:15:20;;;;;;;5.65;1.33;;;35.00;48.20;;;;;;5049918;28;20079;-63
2023/02/16 05:17:47;;;;;;;3.58;1.30;;;34.80;47.60;;;;;;5051119;28;20036;-63
2023/02/16 05:20:14;;;;;;;2.38;0.98;;;34.90;49.20;;;;;;5051012;28;20017;-63
2023/02/16 05:22:44;;;;;;;3.95;1.30;;;34.70;48.30;;;;;;5050754;28;20316;-63
2023/02/16 05:25:11;;;;;;;3.00;1.00;;;34.60;48.60;;;;;;5050674;28;20090;-63
2023/02/16 05:27:39;;;;;;;3.22;1.25;;;34.50;47.60;;;;;;5050593;28;20086;-63
2023/02/16 05:30:07;;;;;;;4.03;1.27;;;34.40;49.10;;;;;;5049306;28;20025;-63
2023/02/16 05:32:34;;;;;;;2.30;0.90;;;34.30;51.10;;;;;;5050147;28;20417;-63
2023/02/16 05:35:02;;;;;;;8.00;2.05;;;34.20;50.70;;;;;;5050591;28;20416;-63
2023/02/16 05:37:29;;;;;;;3.92;1.50;;;34.40;51.30;;;;;;5049726;28;20112;-63
2023/02/16 05:39:56;;;;;;;4.55;1.30;;;34.30;51.80;;;;;;5050374;28;20017;-64
2023/02/16 05:42:24;;;;;;;3.45;1.38;;;34.20;52.80;;;;;;5049077;28;20102;-63
2023/02/16 05:44:51;;;;;;;3.50;1.40;;;34.00;52.30;;;;;;5050742;28;20386;-63
2023/02/16 05:47:19;;;;;;;5.10;1.42;;;33.90;52.60;;;;;;5050675;28;20455;-62
2023/02/16 05:49:46;;;;;;;4.07;1.00;;;33.90;52.40;;;;;;5050246;28;20023;-62
2023/02/16 05:52:13;;;;;;;3.05;1.20;;;33.80;52.20;;;;;;5050216;28;20075;-64
2023/02/16 05:54:41;;;;;;;3.30;1.20;;;33.70;52.80;;;;;;5050182;28;20074;-63
2023/02/16 05:57:10;;;;;;;4.75;1.20;;;33.70;52.90;;;;;;5050150;28;20036;-63
2023/02/16 05:59:37;;;;;;;4.80;1.20;;;33.60;53.00;;;;;;5050261;28;20083;-63
2023/02/16 06:02:05;;;;;;;7.50;1.50;;;33.50;53.00;;;;;;5049815;28;20028;-63
2023/02/16 06:04:32;;;;;;;6.28;1.38;;;33.40;53.20;;;;;;5050123;28;20517;-62
2023/02/16 06:07:00;;;;;;;4.95;1.25;;;33.30;53.90;;;;;;5049956;28;20055;-62
2023/02/16 06:09:27;;;;;;;2.70;0.98;;;33.40;55.10;;;;;;5050022;28;20029;-63
2023/02/16 06:11:55;;;;;;;6.43;1.58;;;33.40;55.30;;;;;;5049796;28;20024;-63
2023/02/16 06:14:22;;;;;;;5.15;1.20;;;33.30;54.10;;;;;;5050012;28;20021;-63
2023/02/16 06:16:50;;;;;;;5.22;1.40;;;33.10;55.00;;;;;;5050234;28;20553;-63
2023/02/16 06:19:19;;;;;;;4.43;1.75;;;33.00;55.30;;;;;;5050173;28;20029;-63
2023/02/16 06:21:47;;;;;;;7.97;1.75;;;33.00;54.80;;;;;;5049783;28;20389;-63
2023/02/16 06:24:15;;;;;;;7.40;1.35;;;32.90;54.90;;;;;;5049615;28;20032;-63
2023/02/16 06:26:42;;;;;;;2.83;1.23;;;32.60;55.30;;;;;;5049731;28;20020;-63
2023/02/16 06:29:10;;;;;;;3.03;1.20;;;32.50;55.70;;;;;;5049614;28;20032;-63
2023/02/16 06:31:37;;;;;;;6.18;1.20;;;32.50;55.70;;;;;;5049169;28;20048;-63
2023/02/16 06:34:05;;;;;;;6.72;1.95;;;32.50;56.40;;;;;;5049707;28;20021;-62
2023/02/16 06:36:33;;;;;;;5.90;2.22;;;32.60;56.40;;;;;;5049485;28;20055;-62
2023/02/16 06:39:01;;;;;;;4.63;1.00;;;32.60;56.60;;;;;;5049616;28;20456;-62
2023/02/16 06:41:34;;;;;;;2.47;0.85;;;32.50;56.50;;;;;;5049443;28;20387;-62
2023/02/16 06:44:12;;;;;;;2.23;1.33;;;32.40;56.10;;;;;;5049493;28;20413;-62
2023/02/16 06:46:45;;;;;;;5.30;0.90;;;32.20;56.40;;;;;;5049328;28;20017;-62
2023/02/16 06:49:15;;;;;;;5.18;1.30;;;32.30;56.70;;;;;;5052723;28;20040;-62
2023/02/16 06:51:43;;;;;;;5.40;1.40;;;32.30;56.10;;;;;;5053620;28;20110;-62
2023/02/16 06:54:11;;;;;;;2.83;1.02;;;32.30;55.60;;;;;;5053702;28;20087;-62
2023/02/16 06:56:39;;;;;;;5.70;1.25;;;32.30;55.30;;;;;;5053649;28;20051;-63
2023/02/16 06:59:07;;;;;;;3.15;1.02;;;32.30;55.60;;;;;;5053638;28;20108;-62
2023/02/16 07:01:34;;;;;;;2.65;0.95;;;32.30;55.10;;;;;;5053432;28;20047;-62
2023/02/16 07:04:02;;;;;;;2.55;1.23;;;32.10;56.30;;;;;;5053243;28;20021;-62
2023/02/16 07:06:29;;;;;;;3.85;0.93;;;32.00;56.90;;;;;;5053339;28;20393;-62
2023/02/16 07:08:58;;;;;;;4.15;1.23;;;31.80;56.20;;;;;;5053267;28;20104;-63
2023/02/16 07:11:25;;;;;;;2.65;1.02;;;31.60;56.30;;;;;;5053113;28;20033;-62
2023/02/16 07:13:53;;;;;;;4.18;1.10;;;31.30;56.40;;;;;;5053617;28;20025;-62
2023/02/16 07:16:20;;;;;;;3.85;1.20;;;31.20;56.70;;;;;;5053415;28;20103;-62
2023/02/16 07:18:48;;;;;;;3.05;0.98;;;31.10;57.40;;;;;;5053219;28;20118;-62
2023/02/16 07:21:15;;;;;;;4.07;1.05;;;31.00;57.80;;;;;;5053098;28;20061;-62
2023/02/16 07:23:44;;;;;;;7.00;1.20;;;30.90;57.90;;;;;;5052983;28;20359;-63
2023/02/16 07:26:11;;;;;;;3.45;1.20;;;30.90;58.00;;;;;;5051661;28;20021;-62
2023/02/16 07:28:39;;;;;;;1.65;0.80;;;30.80;58.10;;;;;;5052899;28;20032;-62
2023/02/16 07:31:12;;;;;;;5.97;1.10;;;30.70;58.40;;;;;;5052537;28;20383;-62
2023/02/16 07:33:40;;;;;;;3.72;0.98;;;30.50;58.60;;;;;;5052855;28;20033;-62
2023/02/16 07:36:08;;;;;;;8.88;1.30;;;30.40;58.40;;;;;;5052858;28;20025;-62
2023/02/16 07:38:36;;;;;;;3.75;0.98;;;30.20;59.40;;;;;;5053044;28;20478;-62
2023/02/16 07:41:04;;;;;;;3.20;0.73;;;30.10;59.60;;;;;;5052772;28;20028;-62
2023/02/16 07:43:32;;;;;;;4.90;1.00;;;29.90;59.40;;;;;;5052615;28;20079;-62
2023/02/16 07:45:59;;;;;;;3.65;1.00;;;29.70;59.70;;;;;;5052558;28;20025;-62
2023/02/16 07:48:27;;;;;;;2.20;0.85;;;29.60;60.20;;;;;;5052790;28;20024;-62
2023/02/16 07:50:54;;;;;;;3.45;1.20;;;29.50;61.00;;;;;;5052544;28;20092;-62
2023/02/16 07:53:22;;;;;;;4.25;1.48;;;29.30;61.20;;;;;;5052919;28;20052;-61
2023/02/16 07:55:49;;;;;;;5.25;2.05;;;29.10;60.40;;;;;;5052783;28;20043;-62
2023/02/16 07:58:37;;;;;;;5.75;2.38;;;29.00;61.10;;;;;;5051265;28;20025;-61
2023/02/16 08:01:10;;;;;;;3.40;1.15;;;28.90;61.70;;;;;;5051134;28;20076;-62
2023/02/16 08:03:38;;;;;;;4.28;1.60;;;28.70;62.20;;;;;;5052301;28;20029;-61
2023/02/16 08:06:06;;;;;;;2.92;1.50;;;28.50;63.00;;;;;;5051823;28;20028;-61
2023/02/16 08:08:34;;;;;;;3.03;1.15;;;28.40;62.70;;;;;;5050738;28;20029;-61
2023/02/16 08:11:07;;;;;;;9.20;1.52;;;28.20;63.00;;;;;;5052199;28;20424;-61
2023/02/16 08:13:35;;;;;;;4.57;1.65;;;28.10;64.00;;;;;;5052237;28;20029;-62
2023/02/16 08:16:02;;;;;;;6.05;2.15;;;27.90;64.70;;;;;;5051992;28;20028;-62
2023/02/16 08:18:30;;;;;;;11.13;3.17;;;27.70;65.80;;;;;;5050855;28;20025;-62
2023/02/16 08:20:58;;;;;;;4.57;2.03;;;27.60;66.70;;;;;;5050628;28;20032;-62
2023/02/16 08:23:25;;;;;;;6.90;1.92;;;27.40;66.70;;;;;;5052001;28;20029;-62
2023/02/16 08:25:52;;;;;;;4.78;1.00;;;27.20;67.10;;;;;;5052337;28;20021;-61
2023/02/16 08:28:20;;;;;;;4.05;1.17;;;27.10;67.60;;;;;;5052407;28;20017;-61
2023/02/16 08:30:48;;;;;;;5.85;1.38;;;27.00;68.70;;;;;;5051361;28;20041;-61
2023/02/16 08:33:16;;;;;;;7.65;1.63;;;26.80;69.10;;;;;;5051775;28;20036;-62
2023/02/16 08:35:44;;;;;;;9.23;1.10;;;26.60;69.90;;;;;;5051595;28;20029;-62
2023/02/16 08:38:11;;;;;;;3.92;1.02;;;26.50;70.70;;;;;;5051655;28;20496;-61
2023/02/16 08:40:38;;;;;;;2.90;0.98;;;26.40;72.10;;;;;;5050220;28;20029;-62
2023/02/16 08:43:06;;;;;;;4.43;1.58;;;26.20;73.20;;;;;;5051594;28;20025;-62
2023/02/16 08:45:33;;;;;;;6.00;1.15;;;26.10;75.10;;;;;;5051450;28;20017;-62
2023/02/16 08:48:01;;;;;;;3.95;1.17;;;26.00;75.50;;;;;;5051431;28;20088;-62
2023/02/16 08:50:28;;;;;;;7.10;1.13;;;25.80;77.00;;;;;;5051391;28;20021;-62
2023/02/16 08:52:57;;;;;;;5.57;1.67;;;25.70;79.00;;;;;;5051157;28;20116;-63
2023/02/16 08:55:24;;;;;;;2.97;0.80;;;25.50;80.60;;;;;;5051580;28;20037;-64
2023/02/16 08:57:51;;;;;;;4.63;1.30;;;25.40;82.60;;;;;;5051762;28;20017;-63
2023/02/16 09:00:34;;;;;;;2.70;0.95;;;25.40;85.00;;;;;;5051165;28;20048;-62
2023/02/16 09:03:03;;;;;;;5.40;1.33;;;25.20;87.10;;;;;;5051249;28;20028;-63
2023/02/16 09:05:30;;;;;;;4.90;1.27;;;25.10;89.60;;;;;;5049866;28;20049;-63
2023/02/16 09:07:58;;;;;;;3.72;0.95;;;25.00;90.70;;;;;;5050031;28;20025;-63
2023/02/16 09:10:25;;;;;;;3.97;1.02;;;24.90;91.80;;;;;;5050904;28;20025;-63
2023/02/16 09:12:53;;;;;;;4.47;1.08;;;24.80;92.60;;;;;;5049244;28;20499;-62
2023/02/16 09:15:21;;;;;;;5.13;1.20;;;24.70;93.40;;;;;;5051321;28;20501;-62
2023/02/16 09:17:48;;;;;;;5.45;1.45;;;24.60;94.40;;;;;;5051001;28;20033;-62
2023/02/16 09:20:16;;;;;;;5.93;1.38;;;24.50;95.30;;;;;;5050997;28;20567;-62
2023/02/16 09:22:47;;;;;;;5.60;1.20;;;24.50;96.00;;;;;;5050789;28;20108;-62
2023/02/16 09:25:15;;;;;;;4.10;0.93;;;24.40;96.80;;;;;;5050821;28;20563;-62
2023/02/16 09:27:44;;;;;;;4.40;1.10;;;24.20;97.60;;;;;;5050653;28;20021;-62
2023/02/16 09:30:13;;;;;;;4.07;0.80;;;24.20;98.60;;;;;;5050527;28;20092;-62
2023/02/16 09:32:41;;;;;;;3.13;1.00;;;24.00;99.30;;;;;;5050317;28;20057;-63
2023/02/16 09:35:09;;;;;;;4.65;0.80;;;24.00;99.90;;;;;;5050644;28;20108;-63
2023/02/16 09:37:36;;;;;;;3.47;0.93;;;23.90;99.90;;;;;;5050678;28;20032;-62
2023/02/16 09:40:04;;;;;;;5.47;1.20;;;23.80;99.90;;;;;;5050506;28;20021;-62
2023/02/16 09:42:57;;;;;;;5.40;1.70;;;23.70;99.90;;;;;;5050405;28;20059;-63
2023/02/16 09:45:25;;;;;;;4.03;1.15;;;23.50;99.90;;;;;;5050523;28;20021;-63
2023/02/16 09:47:57;;;;;;;3.63;0.88;;;23.40;99.90;;;;;;5050916;28;20033;-62
2023/02/16 09:50:27;;;;;;;6.57;0.90;;;23.30;99.90;;;;;;5050508;28;20045;-63
2023/02/16 09:53:10;;;;;;;7.72;1.25;;;23.20;99.90;;;;;;5050472;28;20037;-63
2023/02/16 09:55:46;;;;;;;6.30;1.30;;;23.00;99.90;;;;;;5050413;28;20021;-62
2023/02/16 09:58:28;;;;;;;9.30;1.50;;;23.00;99.90;;;;;;5050227;28;20029;-62
2023/02/16 10:01:19;;;;;;;7.03;1.38;;;23.00;99.90;;;;;;5049969;28;20036;-62
2023/02/16 10:04:18;;;;;;;5.70;1.05;;;22.90;99.90;;;;;;5050215;28;20040;-63
2023/02/16 10:06:57;;;;;;;4.82;1.00;;;22.80;99.90;;;;;;5045998;28;20082;-63
2023/02/16 10:09:28;;;;;;;3.50;0.85;;;22.70;99.90;;;;;;5050313;28;20064;-63
2023/02/16 10:12:10;;;;;;;8.85;2.25;;;22.70;99.90;;;;;;5049989;28;20036;-63
2023/02/16 10:14:47;;;;;;;3.72;1.20;;;22.60;99.90;;;;;;5049849;28;20017;-63
2023/02/16 10:17:22;;;;;;;7.40;1.00;;;22.50;99.90;;;;;;5049995;28;20112;-63
2023/02/16 10:19:56;;;;;;;6.63;1.13;;;22.50;99.90;;;;;;5050097;28;20044;-63
2023/02/16 10:22:54;;;;;;;4.20;0.80;;;22.50;99.90;;;;;;5049689;28;20021;-63
2023/02/16 10:25:45;;;;;;;5.45;1.10;;;22.40;99.90;;;;;;5038824;28;20033;-62
2023/02/16 10:28:12;;;;;;;5.95;1.55;;;22.30;99.90;;;;;;5049724;28;20048;-62
2023/02/16 10:30:48;;;;;;;3.88;1.00;;;22.20;99.90;;;;;;5049299;28;20103;-62
2023/02/16 10:33:42;;;;;;;4.82;1.33;;;22.20;99.90;;;;;;5048481;28;20057;-62
2023/02/16 10:36:20;;;;;;;4.53;1.08;;;22.10;99.90;;;;;;5049693;28;20028;-62
2023/02/16 10:39:08;;;;;;;3.88;0.70;;;22.10;99.90;;;;;;5048427;28;20036;-62
2023/02/16 10:41:46;;;;;;;3.60;1.02;;;22.10;99.90;;;;;;5049926;28;20033;-62
2023/02/16 10:44:16;;;;;;;6.03;1.13;;;22.10;99.90;;;;;;5048361;28;20390;-62
2023/02/16 10:46:47;;;;;;;3.38;0.93;;;22.00;99.90;;;;;;5049624;28;20111;-63
2023/02/16 10:49:16;;;;;;;3.35;0.95;;;22.10;99.90;;;;;;5049642;28;20029;-62
2023/02/16 10:51:48;;;;;;;5.20;1.42;;;22.10;99.90;;;;;;5049634;28;20103;-62
2023/02/16 10:54:22;;;;;;;8.07;1.73;;;22.00;99.90;;;;;;5049534;28;20166;-62
2023/02/16 10:56:59;;;;;;;4.80;1.00;;;22.00;99.90;;;;;;5049635;28;20020;-62
2023/02/16 10:59:44;;;;;;;6.30;1.08;;;21.90;99.90;;;;;;5049200;28;20033;-62
2023/02/16 11:02:24;;;;;;;6.50;1.42;;;21.80;99.90;;;;;;5049435;28;20025;-62
2023/02/16 11:04:53;;;;;;;7.53;1.58;;;21.80;99.90;;;;;;5048715;28;20029;-62
2023/02/16 11:07:28;;;;;;;4.50;1.45;;;21.80;99.90;;;;;;5049790;28;20025;-62
2023/02/16 11:10:00;;;;;;;6.18;1.10;;;21.70;99.90;;;;;;5049480;28;20096;-63
2023/02/16 11:12:37;;;;;;;3.83;1.02;;;21.60;99.90;;;;;;5048905;28;20040;-62
2023/02/16 11:15:26;;;;;;;4.18;0.93;;;21.60;99.90;;;;;;5049358;28;20029;-62
2023/02/16 11:18:06;;;;;;;4.38;0.75;;;21.50;99.90;;;;;;5049659;28;20367;-62
2023/02/16 11:20:35;;;;;;;5.95;1.83;;;21.40;99.90;;;;;;5049319;28;20025;-61
2023/02/16 11:23:21;;;;;;;4.53;1.20;;;21.30;99.90;;;;;;5049279;28;20028;-62
2023/02/16 11:26:10;;;;;;;3.05;1.05;;;21.30;99.90;;;;;;5049127;28;20033;-62
2023/02/16 11:28:49;;;;;;;5.60;1.58;;;21.40;99.90;;;;;;5049021;28;20197;-61
2023/02/16 11:31:19;;;;;;;3.22;1.20;;;21.50;99.90;;;;;;5047740;28;20055;-62
2023/02/16 11:34:26;;;;;;;4.13;1.10;;;21.50;99.90;;;;;;5048940;28;20033;-62
2023/02/16 11:37:23;;;;;;;8.43;1.25;;;21.60;99.90;;;;;;5049069;28;20037;-62
2023/02/16 11:40:00;;;;;;;9.27;1.17;;;21.60;99.90;;;;;;5050128;28;20095;-61
2023/02/16 11:42:34;;;;;;;5.82;0.90;;;21.50;99.90;;;;;;5052832;28;20025;-62
2023/02/16 11:45:04;;;;;;;6.20;1.05;;;21.40;99.90;;;;;;5052576;28;20043;-63
2023/02/16 11:47:41;;;;;;;6.07;1.17;;;21.20;99.90;;;;;;5052680;28;20049;-63
2023/02/16 11:50:18;;;;;;;4.63;1.05;;;21.10;99.90;;;;;;5052757;28;20024;-62
2023/02/16 11:53:16;;;;;;;6.20;1.52;;;21.00;99.90;;;;;;5052650;28;20124;-62
2023/02/16 11:55:46;;;;;;;7.45;1.42;;;20.90;99.90;;;;;;5052650;28;20029;-62
2023/02/16 11:58:17;;;;;;;5.55;1.15;;;20.90;99.90;;;;;;5052703;28;20028;-62
2023/02/16 12:01:07;;;;;;;7.07;2.17;;;21.00;99.90;;;;;;5051173;28;20115;-63
2023/02/16 12:04:18;;;;;;;6.65;1.38;;;21.10;99.90;;;;;;5052460;28;20056;-62
2023/02/16 12:07:02;;;;;;;6.70;1.80;;;21.20;99.90;;;;;;5052463;28;20524;-62
2023/02/16 12:09:36;;;;;;;5.55;1.27;;;21.20;99.90;;;;;;5052206;28;20066;-62
2023/02/16 12:12:28;;;;;;;9.98;1.52;;;21.20;99.90;;;;;;5052302;28;20039;-62
2023/02/16 12:15:02;;;;;;;6.45;1.13;;;21.20;99.90;;;;;;5052599;28;20025;-63
2023/02/16 12:18:11;;;;;;;6.95;1.40;;;21.20;99.90;;;;;;5052226;28;20508;-63
2023/02/16 12:20:53;;;;;;;8.00;1.80;;;21.20;99.90;;;;;;5052049;28;20036;-63
2023/02/16 12:23:51;;;;;;;8.13;2.08;;;21.20;99.90;;;;;;5052187;28;20029;-63
2023/02/16 12:26:39;;;;;;;6.97;1.73;;;21.20;99.90;;;;;;5052031;28;20037;-63
2023/02/16 12:29:23;;;;;;;7.70;1.10;;;21.10;99.90;;;;;;5051904;28;20437;-63
2023/02/16 12:32:02;;;;;;;15.07;1.65;;;21.10;99.90;;;;;;5051717;28;20048;-63
2023/02/16 12:34:42;;;;;;;7.20;1.20;;;21.10;99.90;;;;;;5051792;28;20025;-63
2023/02/16 12:37:34;;;;;;;8.05;1.42;;;21.10;99.90;;;;;;5051751;28;20415;-63
2023/02/16 12:40:31;;;;;;;5.25;1.10;;;21.10;99.90;;;;;;5050463;28;20478;-63
2023/02/16 12:43:17;;;;;;;4.20;1.30;;;21.10;99.90;;;;;;5015175;28;20045;-63
2023/02/16 12:45:46;;;;;;;6.72;1.30;;;21.00;99.90;;;;;;5050166;28;20035;-63
2023/02/16 12:48:42;;;;;;;6.30;1.20;;;20.90;99.90;;;;;;5051629;28;20424;-63
2023/02/16 12:51:52;;;;;;;4.03;1.05;;;20.90;99.90;;;;;;5051611;28;20033;-63
2023/02/16 12:54:28;;;;;;;5.53;0.88;;;20.80;99.90;;;;;;5045902;28;20064;-63
2023/02/16 12:57:16;;;;;;;5.68;1.42;;;20.70;99.90;;;;;;5051830;28;20494;-63
2023/02/16 13:00:01;;;;;;;7.18;1.20;;;20.60;99.90;;;;;;5051183;28;20100;-63
2023/02/16 13:02:52;;;;;;;10.63;1.42;;;20.50;99.90;;;;;;5051295;28;20017;-63
2023/02/16 13:05:36;;;;;;;5.53;1.02;;;20.50;99.90;;;;;;5051283;28;20527;-63
2023/02/16 13:08:13;;;;;;;6.40;1.42;;;20.30;99.90;;;;;;5051205;28;20052;-63
2023/02/16 13:11:02;;;;;;;5.15;1.67;;;20.20;99.90;;;;;;5051093;28;20495;-63
2023/02/16 13:13:34;;;;;;;7.90;1.15;;;20.10;99.90;;;;;;5050791;28;20033;-63
2023/02/16 13:16:19;;;;;;;5.32;1.17;;;20.00;99.90;;;;;;5051021;28;20389;-63
2023/02/16 13:18:49;;;;;;;10.90;1.90;;;19.90;99.90;;;;;;5051011;28;20024;-62
2023/02/16 13:21:44;;;;;;;10.88;2.22;;;19.90;99.90;;;;;;5050949;28;20102;-63
2023/02/16 13:24:26;;;;;;;8.88;1.40;;;19.90;99.90;;;;;;5050524;28;20025;-63
2023/02/16 13:27:12;;;;;;;7.97;2.15;;;19.90;99.90;;;;;;5050746;28;20071;-63
2023/02/16 13:29:44;;;;;;;6.45;1.65;;;20.10;99.90;;;;;;5049999;28;20048;-62
2023/02/16 13:32:30;;;;;;;8.25;1.60;;;20.20;99.90;;;;;;5049659;28;20072;-62
2023/02/16 13:35:09;;;;;;;6.43;1.15;;;20.30;99.90;;;;;;5050153;28;20549;-63
2023/02/16 13:38:04;;;;;;;6.55;1.25;;;20.30;99.90;;;;;;5049904;28;20045;-62
2023/02/16 13:41:21;;;;;;;6.57;1.88;;;20.30;99.90;;;;;;5049843;28;20424;-62
2023/02/16 13:44:04;;;;;;;10.75;2.00;;;20.30;99.90;;;;;;5049634;28;20029;-62
2023/02/16 13:46:36;;;;;;;5.78;1.38;;;20.30;99.90;;;;;;5049773;28;20017;-62
2023/02/16 13:49:05;;;;;;;6.85;1.15;;;20.30;99.90;;;;;;5049844;28;20104;-62
2023/02/16 13:51:46;;;;;;;9.20;1.90;;;20.30;99.90;;;;;;5049666;28;20032;-62
2023/02/16 13:54:46;;;;;;;4.00;1.73;;;20.30;99.90;;;;;;5049508;28;20028;-62
2023/02/16 13:57:34;;;;;;;6.30;1.42;;;20.20;99.90;;;;;;5044984;28;20467;-62
2023/02/16 14:00:04;;;;;;;10.98;1.75;;;20.10;99.90;;;;;;5049290;28;20051;-62
2023/02/16 14:02:53;;;;;;;3.53;1.17;;;20.00;99.90;;;;;;5048153;28;20433;-63
2023/02/16 14:05:26;;;;;;;8.57;1.65;;;19.80;99.90;;;;;;5049437;28;20021;-62